createdAt,value
2022-07-29T00:01:59.277Z,1.38
2022-07-29T00:07:02.061Z,1.63
2022-07-29T00:12:06.983Z,1.23
2022-07-29T00:17:12.611Z,1.80
2022-07-29T00:22:21.982Z,1.38
2022-07-29T00:27:26.171Z,1.20
2022-07-29T00:32:29.007Z,1.30
2022-07-29T00:37:31.803Z,1.55
2022-07-29T00:42:45.154Z,1.42
2022-07-29T00:47:48.084Z,1.50
2022-07-29T00:52:51.079Z,1.60
2022-07-29T00:57:55.817Z,1.70
2022-07-29T01:02:58.671Z,1.50
2022-07-29T01:08:01.794Z,1.70
2022-07-29T01:13:08.486Z,1.48
2022-07-29T01:18:18.203Z,2.00
2022-07-29T01:23:49.087Z,1.30
2022-07-29T01:29:07.428Z,1.30
2022-07-29T01:34:15.937Z,1.48
2022-07-29T01:39:21.495Z,1.27
2022-07-29T01:44:31.821Z,1.42
2022-07-29T01:49:38.198Z,1.55
2022-07-29T01:54:44.057Z,1.38
2022-07-29T01:59:52.017Z,1.20
2022-07-29T02:04:55.590Z,1.40
2022-07-29T02:09:59.794Z,1.45
2022-07-29T02:15:05.616Z,1.45
2022-07-29T02:20:10.684Z,1.13
2022-07-29T02:25:14.448Z,1.35
2022-07-29T02:30:19.696Z,1.35
2022-07-29T02:35:23.302Z,1.48
2022-07-29T02:40:26.171Z,1.10
2022-07-29T02:45:31.074Z,1.10
2022-07-29T02:50:37.075Z,1.20
2022-07-29T02:55:43.045Z,1.05
2022-07-29T03:00:49.209Z,1.25
2022-07-29T03:05:54.651Z,1.13
2022-07-29T03:10:57.553Z,1.40
2022-07-29T03:16:02.029Z,1.70
2022-07-29T03:21:08.353Z,1.35
2022-07-29T03:26:11.331Z,1.38
2022-07-29T03:31:15.558Z,1.80
2022-07-29T03:36:18.759Z,1.35
2022-07-29T03:41:22.596Z,1.20
2022-07-29T03:46:29.007Z,1.45
2022-07-29T03:51:33.852Z,1.38
2022-07-29T03:56:40.836Z,1.38
2022-07-29T04:01:45.512Z,1.35
2022-07-29T04:06:48.761Z,1.40
2022-07-29T04:12:00.693Z,1.10
2022-07-29T04:17:07.798Z,1.10
2022-07-29T04:22:10.744Z,1.40
2022-07-29T04:27:13.616Z,1.30
2022-07-29T04:32:17.702Z,0.98
2022-07-29T04:37:20.722Z,1.17
2022-07-29T04:42:26.732Z,1.13
2022-07-29T04:47:32.494Z,1.30
2022-07-29T04:52:35.658Z,0.80
2022-07-29T04:57:38.420Z,0.73
2022-07-29T05:02:42.696Z,1.52
2022-07-29T05:07:45.875Z,0.82
2022-07-29T05:12:48.625Z,1.00
2022-07-29T05:17:52.884Z,1.15
2022-07-29T05:22:56.089Z,1.10
2022-07-29T05:27:59.328Z,1.00
2022-07-29T05:33:03.843Z,1.20
2022-07-29T05:38:06.628Z,1.17
2022-07-29T05:43:10.361Z,1.00
2022-07-29T05:48:14.666Z,0.95
2022-07-29T05:53:20.158Z,1.00
2022-07-29T05:58:23.275Z,1.00
2022-07-29T06:03:30.418Z,1.20
2022-07-29T06:08:34.670Z,1.00
2022-07-29T06:13:37.619Z,1.20
2022-07-29T06:18:42.059Z,1.00
2022-07-29T06:23:45.004Z,1.15
2022-07-29T06:28:47.902Z,1.15
2022-07-29T06:33:54.945Z,1.15
2022-07-29T06:38:58.436Z,1.10
2022-07-29T06:44:02.426Z,1.20
2022-07-29T06:49:14.025Z,1.52
2022-07-29T06:54:17.428Z,1.58
2022-07-29T06:59:26.230Z,2.40
2022-07-29T07:04:35.386Z,2.05
2022-07-29T07:09:40.635Z,2.20
2022-07-29T07:14:43.918Z,2.20
2022-07-29T07:20:08.398Z,2.10
2022-07-29T07:25:11.972Z,1.85
2022-07-29T07:30:15.355Z,2.75
2022-07-29T07:35:19.588Z,2.22
2022-07-29T07:40:22.339Z,2.00
2022-07-29T07:45:25.181Z,1.92
2022-07-29T07:50:29.560Z,2.42
2022-07-29T07:55:47.435Z,1.80
2022-07-29T08:00:55.268Z,2.00
2022-07-29T08:05:59.987Z,2.20
2022-07-29T08:11:09.084Z,1.88
2022-07-29T08:16:16.630Z,1.73
2022-07-29T08:21:21.024Z,2.10
2022-07-29T08:26:24.645Z,2.35
2022-07-29T08:31:27.588Z,3.00
2022-07-29T08:36:31.835Z,2.67
2022-07-29T08:41:34.764Z,3.60
2022-07-29T08:46:39.933Z,3.30
2022-07-29T08:51:49.462Z,3.75
2022-07-29T08:56:55.126Z,4.05
2022-07-29T09:02:01.220Z,3.45
2022-07-29T09:07:06.902Z,4.28
2022-07-29T09:12:12.330Z,3.63
2022-07-29T09:17:17.820Z,3.08
2022-07-29T09:22:31.138Z,3.03
2022-07-29T09:27:34.660Z,2.55
2022-07-29T09:32:56.620Z,2.80
2022-07-29T09:38:12.050Z,1.98
2022-07-29T09:43:15.577Z,2.03
2022-07-29T09:48:20.090Z,1.95
2022-07-29T09:53:34.961Z,1.77
2022-07-29T09:58:38.143Z,2.13
2022-07-29T10:03:52.955Z,1.85
2022-07-29T10:08:57.046Z,1.92
2022-07-29T10:14:00.150Z,1.90
2022-07-29T10:19:03.216Z,2.03
2022-07-29T10:24:14.861Z,1.60
2022-07-29T10:29:18.038Z,1.85
2022-07-29T10:34:25.716Z,1.90
2022-07-29T10:39:44.367Z,1.92
2022-07-29T10:44:48.308Z,2.55
2022-07-29T10:49:59.453Z,2.20
2022-07-29T10:55:06.768Z,2.10
2022-07-29T11:00:30.517Z,2.45
2022-07-29T11:05:53.712Z,1.95
2022-07-29T11:11:44.205Z,2.38
2022-07-29T11:17:06.809Z,1.98
2022-07-29T11:22:10.817Z,2.40
2022-07-29T11:27:20.890Z,2.58
2022-07-29T11:32:25.003Z,2.75
2022-07-29T11:37:29.035Z,2.75
2022-07-29T11:42:44.916Z,2.20
2022-07-29T11:47:54.477Z,2.40
2022-07-29T11:52:57.359Z,3.10
2022-07-29T11:58:03.727Z,2.83
2022-07-29T12:03:09.121Z,2.83
2022-07-29T12:08:14.746Z,2.70
2022-07-29T12:13:20.814Z,2.17
2022-07-29T12:18:25.493Z,2.75
2022-07-29T12:23:29.408Z,2.45
2022-07-29T12:28:40.393Z,2.20
2022-07-29T12:33:43.247Z,2.20
2022-07-29T12:38:46.519Z,2.33
2022-07-29T12:43:57.127Z,2.25
2022-07-29T12:49:00.149Z,2.92
2022-07-29T12:54:06.063Z,2.45
2022-07-29T12:59:20.673Z,2.25
2022-07-29T13:04:27.764Z,2.63
2022-07-29T13:09:39.942Z,2.60
2022-07-29T13:14:45.346Z,2.70
2022-07-29T13:19:50.522Z,2.33
2022-07-29T13:24:55.573Z,2.05
2022-07-29T13:30:01.362Z,2.33
2022-07-29T13:35:06.029Z,2.50
2022-07-29T13:40:10.554Z,2.55
2022-07-29T13:45:14.787Z,2.30
2022-07-29T13:50:17.759Z,2.50
2022-07-29T13:55:20.887Z,2.38
2022-07-29T14:00:25.768Z,2.58
2022-07-29T14:05:28.514Z,2.83
2022-07-29T14:10:32.555Z,2.60
2022-07-29T14:15:36.707Z,2.90
2022-07-29T14:20:42.432Z,3.47
2022-07-29T14:25:45.155Z,3.10
2022-07-29T14:30:49.241Z,2.75
2022-07-29T14:35:51.981Z,3.63
2022-07-29T14:40:54.954Z,2.80
2022-07-29T14:46:04.056Z,2.65
2022-07-29T14:51:09.406Z,2.85
2022-07-29T14:56:35.404Z,3.13
2022-07-29T15:01:36.302Z,2.78
2022-07-29T15:06:39.243Z,2.70
2022-07-29T15:11:42.045Z,2.55
2022-07-29T15:16:46.674Z,2.95
2022-07-29T15:21:51.121Z,3.08
2022-07-29T15:26:53.886Z,1.92
2022-07-29T15:31:58.365Z,2.92
2022-07-29T15:37:01.532Z,1.90
2022-07-29T15:42:04.680Z,1.83
2022-07-29T15:47:08.876Z,2.20
2022-07-29T15:52:12.012Z,2.40
2022-07-29T15:57:15.300Z,1.98
2022-07-29T16:02:19.411Z,1.70
2022-07-29T16:07:22.262Z,1.88
2022-07-29T16:12:25.566Z,1.80
2022-07-29T16:17:30.181Z,2.08
2022-07-29T16:22:33.066Z,2.15
2022-07-29T16:27:37.827Z,2.22
2022-07-29T16:32:42.339Z,1.83
2022-07-29T16:37:45.098Z,2.28
2022-07-29T16:42:47.967Z,2.17
2022-07-29T16:47:53.689Z,2.30
2022-07-29T16:52:59.500Z,2.10
2022-07-29T16:58:02.241Z,2.00
2022-07-29T17:03:06.732Z,1.73
2022-07-29T17:08:09.642Z,2.15
2022-07-29T17:13:13.033Z,2.00
2022-07-29T17:18:17.153Z,2.33
2022-07-29T17:23:19.886Z,2.38
2022-07-29T17:28:22.602Z,2.25
2022-07-29T17:33:26.641Z,2.08
2022-07-29T17:38:29.430Z,2.10
2022-07-29T17:43:32.219Z,1.92
2022-07-29T17:48:36.420Z,1.73
2022-07-29T17:53:39.620Z,1.75
2022-07-29T17:58:42.353Z,2.10
2022-07-29T18:03:46.927Z,1.85
2022-07-29T18:08:49.634Z,1.63
2022-07-29T18:13:52.417Z,1.92
2022-07-29T18:18:56.787Z,2.00
2022-07-29T18:23:59.495Z,1.92
2022-07-29T18:29:02.200Z,2.00
2022-07-29T18:34:06.266Z,1.77
2022-07-29T18:39:09.068Z,1.80
2022-07-29T18:44:17.486Z,1.95
2022-07-29T18:49:21.644Z,1.98
2022-07-29T18:54:24.435Z,1.88
2022-07-29T18:59:28.156Z,2.00
2022-07-29T19:04:32.297Z,1.98
2022-07-29T19:09:35.530Z,2.03
2022-07-29T19:14:51.817Z,2.10
2022-07-29T19:20:03.614Z,1.90
2022-07-29T19:25:08.198Z,2.10
2022-07-29T19:30:14.017Z,2.90
2022-07-29T19:35:28.244Z,3.85
2022-07-29T19:40:31.573Z,3.20
2022-07-29T19:45:35.787Z,2.60
2022-07-29T19:50:40.013Z,2.70
2022-07-29T19:55:45.878Z,2.30
2022-07-29T20:00:48.664Z,2.55
2022-07-29T20:05:52.880Z,2.40
2022-07-29T20:10:55.967Z,2.63
2022-07-29T20:15:58.809Z,2.40
2022-07-29T20:21:05.434Z,2.33
2022-07-29T20:26:09.696Z,2.08
2022-07-29T20:31:17.894Z,1.83
2022-07-29T20:36:22.143Z,2.20
2022-07-29T20:41:24.871Z,2.15
2022-07-29T20:46:27.666Z,2.22
2022-07-29T20:51:32.073Z,2.22
2022-07-29T20:56:46.059Z,2.33
2022-07-29T21:01:48.798Z,2.30
2022-07-29T21:06:55.152Z,2.58
2022-07-29T21:11:59.836Z,2.85
2022-07-29T21:17:05.695Z,1.83
2022-07-29T21:22:10.005Z,2.03
2022-07-29T21:27:30.247Z,1.85
2022-07-29T21:32:33.086Z,1.45
2022-07-29T21:37:37.270Z,2.10
2022-07-29T21:42:40.223Z,2.20
2022-07-29T21:47:42.913Z,1.50
2022-07-29T21:52:46.952Z,1.67
2022-07-29T21:57:50.120Z,2.40
2022-07-29T22:02:53.467Z,2.10
2022-07-29T22:07:57.785Z,2.10
2022-07-29T22:13:01.518Z,2.00
2022-07-29T22:18:04.469Z,1.83
2022-07-29T22:23:08.543Z,2.35
2022-07-29T22:28:11.291Z,2.15
2022-07-29T22:33:17.935Z,2.38
2022-07-29T22:38:22.174Z,2.30
2022-07-29T22:43:25.146Z,2.08
2022-07-29T22:48:28.003Z,1.98
2022-07-29T22:53:32.189Z,2.63
2022-07-29T22:58:35.093Z,2.20
2022-07-29T23:03:39.234Z,1.92
2022-07-29T23:08:43.413Z,2.22
2022-07-29T23:13:46.127Z,2.20
2022-07-29T23:18:49.264Z,2.20
2022-07-29T23:23:56.121Z,2.05
2022-07-29T23:28:58.850Z,1.85
2022-07-29T23:34:01.618Z,2.25
2022-07-29T23:39:06.008Z,2.28
2022-07-29T23:44:08.749Z,2.13
2022-07-29T23:49:11.537Z,2.47
2022-07-29T23:54:15.683Z,2.15
2022-07-29T23:59:18.499Z,2.53
